Terminal Aerodrome Forecast
Issued by NWS

Home | Current Version | Previous Version | Text Only | Print | Product List | Glossary On
Versions: 1 2 3 4 5 6 7 8 9 10 11 12 13 14 15 16 17 18 19 20 21 22 23 24 25 26 27 28 29 30 31 32 33 34 35 36 37 38 39 40 41 42 43 44 45 46
000
FTUS45 KSLC 152331
TAFPVU
TAF
KPVU 152331Z 1600/1624 VRB04KT P6SM BKN180
     FM161100 27005KT P6SM VCSH SCT040 BKN070
     FM161600 31010KT 2SM -SHSN SCT009 BKN020
     FM162300 33011KT P6SM VCSH BKN030=

USA.gov is the U.S. government's official web portal to all federal, state and local government web resources and services.